sensor_id;sensor_type;location;lat;lon;timestamp;pressure;altitude;pressure_sealevel;temperature;humidity
76808;BME280;65758;45.458;11.062;2023-03-09T00:01:33;99845.09;;;13.11;58.84
76808;BME280;65758;45.458;11.062;2023-03-09T00:04:01;99848.92;;;13.10;59.12
76808;BME280;65758;45.458;11.062;2023-03-09T00:06:29;99851.39;;;13.09;59.21
76808;BME280;65758;45.458;11.062;2023-03-09T00:08:56;99852.75;;;13.09;58.97
76808;BME280;65758;45.458;11.062;2023-03-09T00:11:24;99851.67;;;13.08;58.97
76808;BME280;65758;45.458;11.062;2023-03-09T00:13:51;99846.95;;;13.07;59.01
76808;BME280;65758;45.458;11.062;2023-03-09T00:16:25;99844.65;;;13.08;58.92
76808;BME280;65758;45.458;11.062;2023-03-09T00:18:53;99842.30;;;13.08;59.09
76808;BME280;65758;45.458;11.062;2023-03-09T00:21:20;99840.48;;;13.08;59.00
76808;BME280;65758;45.458;11.062;2023-03-09T00:24:09;99839.71;;;13.08;59.15
76808;BME280;65758;45.458;11.062;2023-03-09T00:26:38;99836.14;;;13.08;59.05
76808;BME280;65758;45.458;11.062;2023-03-09T00:29:07;99838.77;;;13.08;58.94
76808;BME280;65758;45.458;11.062;2023-03-09T00:31:35;99834.95;;;13.09;59.10
76808;BME280;65758;45.458;11.062;2023-03-09T00:34:03;99833.84;;;13.10;58.94
76808;BME280;65758;45.458;11.062;2023-03-09T00:36:30;99831.80;;;13.10;59.06
76808;BME280;65758;45.458;11.062;2023-03-09T00:38:58;99828.17;;;13.11;59.07
76808;BME280;65758;45.458;11.062;2023-03-09T00:41:28;99822.84;;;13.11;59.19
76808;BME280;65758;45.458;11.062;2023-03-09T00:43:58;99826.46;;;13.11;59.21
76808;BME280;65758;45.458;11.062;2023-03-09T00:46:26;99828.83;;;13.12;59.31
76808;BME280;65758;45.458;11.062;2023-03-09T00:48:53;99833.84;;;13.11;59.48
76808;BME280;65758;45.458;11.062;2023-03-09T00:51:20;99831.86;;;13.11;59.68
76808;BME280;65758;45.458;11.062;2023-03-09T00:53:47;99829.32;;;13.10;59.47
76808;BME280;65758;45.458;11.062;2023-03-09T00:56:23;99829.31;;;13.10;59.50
76808;BME280;65758;45.458;11.062;2023-03-09T00:58:53;99826.67;;;13.09;59.79
76808;BME280;65758;45.458;11.062;2023-03-09T01:01:20;99818.94;;;13.10;59.55
76808;BME280;65758;45.458;11.062;2023-03-09T01:03:48;99812.30;;;13.10;59.80
76808;BME280;65758;45.458;11.062;2023-03-09T01:06:15;99804.86;;;13.10;60.10
76808;BME280;65758;45.458;11.062;2023-03-09T01:08:42;99804.31;;;13.09;60.15
76808;BME280;65758;45.458;11.062;2023-03-09T01:11:10;99806.89;;;13.09;60.25
76808;BME280;65758;45.458;11.062;2023-03-09T01:13:38;99807.47;;;13.10;60.58
76808;BME280;65758;45.458;11.062;2023-03-09T01:16:07;99805.55;;;13.11;60.50
76808;BME280;65758;45.458;11.062;2023-03-09T01:18:36;99799.39;;;13.10;60.22
76808;BME280;65758;45.458;11.062;2023-03-09T01:21:03;99799.02;;;13.11;60.37
76808;BME280;65758;45.458;11.062;2023-03-09T01:23:30;99796.70;;;13.11;60.40
76808;BME280;65758;45.458;11.062;2023-03-09T01:25:56;99794.39;;;13.11;60.64
76808;BME280;65758;45.458;11.062;2023-03-09T01:28:24;99791.23;;;13.08;60.70
76808;BME280;65758;45.458;11.062;2023-03-09T01:30:51;99799.05;;;13.05;60.96
76808;BME280;65758;45.458;11.062;2023-03-09T01:33:18;99811.34;;;13.04;60.87
76808;BME280;65758;45.458;11.062;2023-03-09T01:35:45;99810.84;;;13.03;60.86
76808;BME280;65758;45.458;11.062;2023-03-09T01:38:12;99805.96;;;13.03;61.07
76808;BME280;65758;45.458;11.062;2023-03-09T01:40:39;99809.15;;;13.03;60.95
76808;BME280;65758;45.458;11.062;2023-03-09T01:43:37;99810.95;;;13.01;61.01
76808;BME280;65758;45.458;11.062;2023-03-09T01:48:49;99812.15;;;12.99;61.29
76808;BME280;65758;45.458;11.062;2023-03-09T01:51:18;99817.59;;;12.98;61.08
76808;BME280;65758;45.458;11.062;2023-03-09T01:53:47;99817.52;;;12.98;61.28
76808;BME280;65758;45.458;11.062;2023-03-09T01:56:17;99817.98;;;12.98;61.39
76808;BME280;65758;45.458;11.062;2023-03-09T01:58:47;99810.95;;;13.02;61.68
76808;BME280;65758;45.458;11.062;2023-03-09T02:01:15;99809.39;;;13.06;61.64
76808;BME280;65758;45.458;11.062;2023-03-09T02:03:46;99812.35;;;13.07;61.78
76808;BME280;65758;45.458;11.062;2023-03-09T02:06:17;99814.45;;;13.09;61.58
76808;BME280;65758;45.458;11.062;2023-03-09T02:11:21;99817.02;;;13.09;61.24
76808;BME280;65758;45.458;11.062;2023-03-09T02:13:50;99809.42;;;13.10;61.20
76808;BME280;65758;45.458;11.062;2023-03-09T02:16:18;99807.23;;;13.12;61.28
76808;BME280;65758;45.458;11.062;2023-03-09T02:18:45;99807.97;;;13.13;60.95
76808;BME280;65758;45.458;11.062;2023-03-09T02:23:56;99797.63;;;13.11;61.22
76808;BME280;65758;45.458;11.062;2023-03-09T02:26:36;99791.80;;;13.10;61.27
76808;BME280;65758;45.458;11.062;2023-03-09T02:29:05;99780.49;;;13.06;61.63
76808;BME280;65758;45.458;11.062;2023-03-09T02:31:32;99769.42;;;13.04;61.47
76808;BME280;65758;45.458;11.062;2023-03-09T02:33:59;99760.80;;;13.01;61.53
76808;BME280;65758;45.458;11.062;2023-03-09T02:36:26;99760.39;;;12.97;61.37
76808;BME280;65758;45.458;11.062;2023-03-09T02:38:58;99763.02;;;12.93;61.67
76808;BME280;65758;45.458;11.062;2023-03-09T02:41:30;99774.89;;;12.89;62.18
76808;BME280;65758;45.458;11.062;2023-03-09T02:43:58;99776.70;;;12.87;61.75
76808;BME280;65758;45.458;11.062;2023-03-09T02:46:28;99774.38;;;12.83;61.73
76808;BME280;65758;45.458;11.062;2023-03-09T02:48:55;99763.44;;;12.79;61.62
76808;BME280;65758;45.458;11.062;2023-03-09T02:51:21;99752.91;;;12.78;61.96
76808;BME280;65758;45.458;11.062;2023-03-09T02:53:48;99745.83;;;12.76;62.13
76808;BME280;65758;45.458;11.062;2023-03-09T02:56:15;99740.08;;;12.76;62.19
76808;BME280;65758;45.458;11.062;2023-03-09T02:58:42;99734.08;;;12.74;62.11
76808;BME280;65758;45.458;11.062;2023-03-09T03:01:09;99735.48;;;12.73;62.04
76808;BME280;65758;45.458;11.062;2023-03-09T03:03:36;99744.26;;;12.71;62.22
76808;BME280;65758;45.458;11.062;2023-03-09T03:06:03;99747.11;;;12.70;62.35
76808;BME280;65758;45.458;11.062;2023-03-09T03:08:29;99752.17;;;12.71;62.45
76808;BME280;65758;45.458;11.062;2023-03-09T03:11:05;99753.13;;;12.69;62.57
76808;BME280;65758;45.458;11.062;2023-03-09T03:13:32;99755.11;;;12.67;62.39
76808;BME280;65758;45.458;11.062;2023-03-09T03:16:01;99753.28;;;12.65;62.86
76808;BME280;65758;45.458;11.062;2023-03-09T03:18:29;99751.30;;;12.65;62.78
76808;BME280;65758;45.458;11.062;2023-03-09T03:20:57;99745.38;;;12.64;62.83
76808;BME280;65758;45.458;11.062;2023-03-09T03:23:24;99740.48;;;12.62;62.73
76808;BME280;65758;45.458;11.062;2023-03-09T03:25:52;99751.86;;;12.58;62.94
76808;BME280;65758;45.458;11.062;2023-03-09T03:28:19;99750.26;;;12.55;63.28
76808;BME280;65758;45.458;11.062;2023-03-09T03:30:52;99747.16;;;12.54;63.20
76808;BME280;65758;45.458;11.062;2023-03-09T03:33:22;99741.40;;;12.54;63.61
76808;BME280;65758;45.458;11.062;2023-03-09T03:35:50;99736.67;;;12.54;63.95
76808;BME280;65758;45.458;11.062;2023-03-09T03:38:17;99732.34;;;12.54;63.84
76808;BME280;65758;45.458;11.062;2023-03-09T03:40:44;99732.70;;;12.56;63.94
76808;BME280;65758;45.458;11.062;2023-03-09T03:43:11;99732.77;;;12.59;64.11
76808;BME280;65758;45.458;11.062;2023-03-09T03:45:40;99739.27;;;12.63;64.01
76808;BME280;65758;45.458;11.062;2023-03-09T03:48:07;99738.80;;;12.66;64.14
76808;BME280;65758;45.458;11.062;2023-03-09T03:50:35;99732.77;;;12.68;64.25
76808;BME280;65758;45.458;11.062;2023-03-09T03:53:03;99735.08;;;12.70;64.36
76808;BME280;65758;45.458;11.062;2023-03-09T03:55:30;99733.52;;;12.72;64.12
76808;BME280;65758;45.458;11.062;2023-03-09T03:57:57;99735.98;;;12.71;64.16
76808;BME280;65758;45.458;11.062;2023-03-09T04:00:25;99740.19;;;12.69;64.16
76808;BME280;65758;45.458;11.062;2023-03-09T04:02:54;99747.42;;;12.67;64.05
76808;BME280;65758;45.458;11.062;2023-03-09T04:05:28;99746.76;;;12.66;63.98
76808;BME280;65758;45.458;11.062;2023-03-09T04:07:55;99751.04;;;12.65;64.48
76808;BME280;65758;45.458;11.062;2023-03-09T04:10:23;99751.72;;;12.63;64.26
76808;BME280;65758;45.458;11.062;2023-03-09T04:12:51;99757.85;;;12.59;64.25
76808;BME280;65758;45.458;11.062;2023-03-09T04:15:18;99754.65;;;12.57;64.30
76808;BME280;65758;45.458;11.062;2023-03-09T04:17:46;99746.37;;;12.57;64.58
76808;BME280;65758;45.458;11.062;2023-03-09T04:20:15;99749.94;;;12.58;64.48
76808;BME280;65758;45.458;11.062;2023-03-09T04:22:43;99753.71;;;12.63;64.73
76808;BME280;65758;45.458;11.062;2023-03-09T04:25:12;99747.37;;;12.67;64.86
76808;BME280;65758;45.458;11.062;2023-03-09T04:27:39;99750.63;;;12.71;64.86
76808;BME280;65758;45.458;11.062;2023-03-09T04:30:32;99744.50;;;12.75;64.66
76808;BME280;65758;45.458;11.062;2023-03-09T04:33:01;99746.05;;;12.77;64.75
76808;BME280;65758;45.458;11.062;2023-03-09T04:35:28;99751.92;;;12.77;64.55
76808;BME280;65758;45.458;11.062;2023-03-09T04:37:57;99752.59;;;12.75;64.47
76808;BME280;65758;45.458;11.062;2023-03-09T04:40:24;99753.34;;;12.73;64.31
76808;BME280;65758;45.458;11.062;2023-03-09T04:42:54;99752.81;;;12.70;64.24
76808;BME280;65758;45.458;11.062;2023-03-09T04:45:21;99745.99;;;12.67;64.29
76808;BME280;65758;45.458;11.062;2023-03-09T04:47:49;99740.27;;;12.66;64.40
76808;BME280;65758;45.458;11.062;2023-03-09T04:50:19;99732.59;;;12.65;64.28
76808;BME280;65758;45.458;11.062;2023-03-09T04:52:51;99730.86;;;12.63;64.49
76808;BME280;65758;45.458;11.062;2023-03-09T04:55:18;99736.84;;;12.62;64.38
76808;BME280;65758;45.458;11.062;2023-03-09T04:57:46;99739.64;;;12.61;64.54
76808;BME280;65758;45.458;11.062;2023-03-09T05:00:14;99733.10;;;12.59;64.43
76808;BME280;65758;45.458;11.062;2023-03-09T05:02:41;99728.99;;;12.61;64.67
76808;BME280;65758;45.458;11.062;2023-03-09T05:05:10;99724.19;;;12.64;64.65
76808;BME280;65758;45.458;11.062;2023-03-09T05:07:37;99719.70;;;12.67;64.83
76808;BME280;65758;45.458;11.062;2023-03-09T05:10:06;99719.48;;;12.66;64.70
76808;BME280;65758;45.458;11.062;2023-03-09T05:12:35;99719.63;;;12.64;64.59
76808;BME280;65758;45.458;11.062;2023-03-09T05:15:05;99720.92;;;12.62;64.48
76808;BME280;65758;45.458;11.062;2023-03-09T05:17:34;99724.05;;;12.60;64.53
76808;BME280;65758;45.458;11.062;2023-03-09T05:20:02;99727.92;;;12.57;64.56
76808;BME280;65758;45.458;11.062;2023-03-09T05:22:36;99728.88;;;12.53;64.36
76808;BME280;65758;45.458;11.062;2023-03-09T05:25:06;99720.73;;;12.49;64.54
76808;BME280;65758;45.458;11.062;2023-03-09T05:27:34;99722.63;;;12.45;64.48
76808;BME280;65758;45.458;11.062;2023-03-09T05:30:01;99718.37;;;12.41;64.49
76808;BME280;65758;45.458;11.062;2023-03-09T05:32:30;99719.13;;;12.37;64.52
76808;BME280;65758;45.458;11.062;2023-03-09T05:34:57;99719.09;;;12.34;64.60
76808;BME280;65758;45.458;11.062;2023-03-09T05:37:24;99713.98;;;12.31;64.63
76808;BME280;65758;45.458;11.062;2023-03-09T05:39:54;99710.71;;;12.28;64.85
76808;BME280;65758;45.458;11.062;2023-03-09T05:42:21;99713.02;;;12.26;64.62
76808;BME280;65758;45.458;11.062;2023-03-09T05:44:49;99714.00;;;12.28;64.80
76808;BME280;65758;45.458;11.062;2023-03-09T05:47:16;99719.05;;;12.28;64.78
76808;BME280;65758;45.458;11.062;2023-03-09T05:49:44;99717.56;;;12.27;64.63
76808;BME280;65758;45.458;11.062;2023-03-09T05:52:11;99717.05;;;12.25;64.73
76808;BME280;65758;45.458;11.062;2023-03-09T05:54:38;99722.13;;;12.21;64.26
76808;BME280;65758;45.458;11.062;2023-03-09T05:57:11;99723.67;;;12.16;64.19
76808;BME280;65758;45.458;11.062;2023-03-09T05:59:39;99723.25;;;12.10;64.08
76808;BME280;65758;45.458;11.062;2023-03-09T06:02:06;99723.60;;;12.07;64.00
76808;BME280;65758;45.458;11.062;2023-03-09T06:04:34;99726.98;;;12.04;64.02
76808;BME280;65758;45.458;11.062;2023-03-09T06:07:04;99724.55;;;12.02;64.13
76808;BME280;65758;45.458;11.062;2023-03-09T06:09:36;99720.65;;;12.02;64.29
76808;BME280;65758;45.458;11.062;2023-03-09T06:12:05;99726.79;;;12.02;64.25
76808;BME280;65758;45.458;11.062;2023-03-09T06:14:32;99723.06;;;12.02;64.38
76808;BME280;65758;45.458;11.062;2023-03-09T06:16:59;99718.36;;;12.04;64.27
76808;BME280;65758;45.458;11.062;2023-03-09T06:19:28;99713.25;;;12.08;64.39
76808;BME280;65758;45.458;11.062;2023-03-09T06:21:55;99711.80;;;12.12;64.50
76808;BME280;65758;45.458;11.062;2023-03-09T06:24:22;99714.35;;;12.16;64.63
76808;BME280;65758;45.458;11.062;2023-03-09T06:26:50;99714.15;;;12.18;64.54
76808;BME280;65758;45.458;11.062;2023-03-09T06:29:27;99718.62;;;12.22;64.63
76808;BME280;65758;45.458;11.062;2023-03-09T06:31:56;99712.68;;;12.27;64.78
76808;BME280;65758;45.458;11.062;2023-03-09T06:34:22;99713.60;;;12.33;64.69
76808;BME280;65758;45.458;11.062;2023-03-09T06:36:50;99720.02;;;12.40;64.86
76808;BME280;65758;45.458;11.062;2023-03-09T06:39:17;99720.06;;;12.46;64.69
76808;BME280;65758;45.458;11.062;2023-03-09T06:41:44;99716.65;;;12.53;64.40
76808;BME280;65758;45.458;11.062;2023-03-09T06:44:26;99715.31;;;12.60;64.48
76808;BME280;65758;45.458;11.062;2023-03-09T06:46:53;99710.25;;;12.65;64.25
76808;BME280;65758;45.458;11.062;2023-03-09T06:49:21;99707.23;;;12.67;64.01
76808;BME280;65758;45.458;11.062;2023-03-09T06:51:49;99705.33;;;12.69;64.21
76808;BME280;65758;45.458;11.062;2023-03-09T06:54:17;99705.02;;;12.73;64.24
76808;BME280;65758;45.458;11.062;2023-03-09T06:56:50;99703.39;;;12.77;64.16
76808;BME280;65758;45.458;11.062;2023-03-09T06:59:19;99706.77;;;12.83;64.08
76808;BME280;65758;45.458;11.062;2023-03-09T07:01:46;99710.10;;;12.90;64.29
76808;BME280;65758;45.458;11.062;2023-03-09T07:04:13;99717.34;;;12.98;64.26
76808;BME280;65758;45.458;11.062;2023-03-09T07:06:40;99718.24;;;13.06;63.91
76808;BME280;65758;45.458;11.062;2023-03-09T07:09:07;99723.42;;;13.15;64.01
76808;BME280;65758;45.458;11.062;2023-03-09T07:11:34;99726.67;;;13.26;64.36
76808;BME280;65758;45.458;11.062;2023-03-09T07:14:01;99723.25;;;13.38;64.31
76808;BME280;65758;45.458;11.062;2023-03-09T07:16:28;99722.67;;;13.50;63.56
76808;BME280;65758;45.458;11.062;2023-03-09T07:18:57;99727.37;;;13.61;63.57
76808;BME280;65758;45.458;11.062;2023-03-09T07:21:24;99726.23;;;13.72;63.53
76808;BME280;65758;45.458;11.062;2023-03-09T07:23:50;99732.36;;;13.84;62.57
76808;BME280;65758;45.458;11.062;2023-03-09T07:26:17;99727.33;;;13.93;62.36
76808;BME280;65758;45.458;11.062;2023-03-09T07:28:45;99734.42;;;14.00;62.01
76808;BME280;65758;45.458;11.062;2023-03-09T07:31:12;99730.91;;;14.10;62.11
76808;BME280;65758;45.458;11.062;2023-03-09T07:33:39;99732.89;;;14.19;62.06
76808;BME280;65758;45.458;11.062;2023-03-09T07:36:07;99737.30;;;14.27;61.76
76808;BME280;65758;45.458;11.062;2023-03-09T07:38:34;99738.17;;;14.33;61.58
76808;BME280;65758;45.458;11.062;2023-03-09T07:41:01;99737.87;;;14.38;61.91
76808;BME280;65758;45.458;11.062;2023-03-09T07:43:29;99741.17;;;14.46;61.89
76808;BME280;65758;45.458;11.062;2023-03-09T07:46:07;99739.78;;;14.55;61.40
76808;BME280;65758;45.458;11.062;2023-03-09T07:48:34;99742.85;;;14.65;61.05
76808;BME280;65758;45.458;11.062;2023-03-09T07:51:05;99748.18;;;14.74;60.83
76808;BME280;65758;45.458;11.062;2023-03-09T07:53:37;99748.92;;;14.82;60.44
76808;BME280;65758;45.458;11.062;2023-03-09T07:56:05;99748.86;;;14.90;60.24
76808;BME280;65758;45.458;11.062;2023-03-09T07:58:34;99752.42;;;14.95;60.03
76808;BME280;65758;45.458;11.062;2023-03-09T08:01:02;99753.17;;;15.01;59.96
76808;BME280;65758;45.458;11.062;2023-03-09T08:03:30;99749.69;;;15.07;59.79
76808;BME280;65758;45.458;11.062;2023-03-09T08:06:00;99753.48;;;15.13;59.71
76808;BME280;65758;45.458;11.062;2023-03-09T08:08:27;99747.21;;;15.20;59.69
76808;BME280;65758;45.458;11.062;2023-03-09T08:10:54;99747.20;;;15.25;59.29
76808;BME280;65758;45.458;11.062;2023-03-09T08:13:21;99750.27;;;15.29;59.44
76808;BME280;65758;45.458;11.062;2023-03-09T08:15:48;99753.89;;;15.34;59.39
76808;BME280;65758;45.458;11.062;2023-03-09T08:18:15;99758.34;;;15.39;59.47
76808;BME280;65758;45.458;11.062;2023-03-09T08:20:44;99762.33;;;15.45;59.18
76808;BME280;65758;45.458;11.062;2023-03-09T08:23:11;99762.72;;;15.51;59.42
76808;BME280;65758;45.458;11.062;2023-03-09T08:25:38;99762.08;;;15.57;58.92
76808;BME280;65758;45.458;11.062;2023-03-09T08:28:06;99762.77;;;15.63;59.13
76808;BME280;65758;45.458;11.062;2023-03-09T08:30:32;99771.17;;;15.69;58.73
76808;BME280;65758;45.458;11.062;2023-03-09T08:33:00;99763.14;;;15.75;58.62
76808;BME280;65758;45.458;11.062;2023-03-09T08:35:31;99768.87;;;15.78;58.60
76808;BME280;65758;45.458;11.062;2023-03-09T08:37:59;99764.75;;;15.84;58.28
76808;BME280;65758;45.458;11.062;2023-03-09T08:40:26;99765.38;;;15.90;58.24
76808;BME280;65758;45.458;11.062;2023-03-09T08:42:53;99767.50;;;15.94;57.97
76808;BME280;65758;45.458;11.062;2023-03-09T08:45:20;99763.39;;;15.98;57.84
76808;BME280;65758;45.458;11.062;2023-03-09T08:47:47;99764.35;;;16.03;57.55
76808;BME280;65758;45.458;11.062;2023-03-09T08:50:15;99761.81;;;16.09;57.57
76808;BME280;65758;45.458;11.062;2023-03-09T08:52:41;99757.58;;;16.15;57.13
76808;BME280;65758;45.458;11.062;2023-03-09T08:55:09;99760.02;;;16.20;56.78
76808;BME280;65758;45.458;11.062;2023-03-09T08:57:38;99758.17;;;16.25;56.72
76808;BME280;65758;45.458;11.062;2023-03-09T09:00:06;99761.77;;;16.31;56.55
76808;BME280;65758;45.458;11.062;2023-03-09T09:02:35;99758.73;;;16.36;56.48
76808;BME280;65758;45.458;11.062;2023-03-09T09:05:03;99767.97;;;16.43;56.10
76808;BME280;65758;45.458;11.062;2023-03-09T09:07:30;99770.85;;;16.48;55.65
76808;BME280;65758;45.458;11.062;2023-03-09T09:09:57;99777.10;;;16.53;55.49
76808;BME280;65758;45.458;11.062;2023-03-09T09:12:24;99779.96;;;16.57;54.95
76808;BME280;65758;45.458;11.062;2023-03-09T09:14:55;99783.99;;;16.64;54.72
76808;BME280;65758;45.458;11.062;2023-03-09T09:17:22;99783.80;;;16.67;54.13
76808;BME280;65758;45.458;11.062;2023-03-09T09:19:49;99790.96;;;16.70;53.97
76808;BME280;65758;45.458;11.062;2023-03-09T09:22:18;99790.30;;;16.76;54.11
76808;BME280;65758;45.458;11.062;2023-03-09T09:24:45;99790.29;;;16.82;53.88
76808;BME280;65758;45.458;11.062;2023-03-09T09:27:11;99786.70;;;16.87;53.72
76808;BME280;65758;45.458;11.062;2023-03-09T09:29:38;99781.96;;;16.92;53.32
76808;BME280;65758;45.458;11.062;2023-03-09T09:32:06;99780.41;;;16.98;53.31
76808;BME280;65758;45.458;11.062;2023-03-09T09:34:33;99778.61;;;17.05;53.07
76808;BME280;65758;45.458;11.062;2023-03-09T09:37:02;99778.41;;;17.13;52.64
76808;BME280;65758;45.458;11.062;2023-03-09T09:39:30;99771.96;;;17.21;52.46
76808;BME280;65758;45.458;11.062;2023-03-09T09:42:06;99774.59;;;17.29;52.24
76808;BME280;65758;45.458;11.062;2023-03-09T09:44:45;99773.60;;;17.37;52.17
76808;BME280;65758;45.458;11.062;2023-03-09T09:47:17;99768.77;;;17.47;51.53
76808;BME280;65758;45.458;11.062;2023-03-09T09:49:50;99776.89;;;17.52;50.95
76808;BME280;65758;45.458;11.062;2023-03-09T09:52:19;99766.86;;;17.55;50.39
76808;BME280;65758;45.458;11.062;2023-03-09T09:57:41;99768.35;;;17.60;50.04
76808;BME280;65758;45.458;11.062;2023-03-09T10:00:34;99774.84;;;17.65;49.87
76808;BME280;65758;45.458;11.062;2023-03-09T10:05:50;99769.08;;;17.74;49.42
76808;BME280;65758;45.458;11.062;2023-03-09T10:11:07;99763.46;;;17.82;49.28
76808;BME280;65758;45.458;11.062;2023-03-09T10:13:39;99766.30;;;17.93;49.65
76808;BME280;65758;45.458;11.062;2023-03-09T10:16:14;99764.63;;;18.04;49.36
76808;BME280;65758;45.458;11.062;2023-03-09T10:18:52;99761.98;;;18.08;48.27
76808;BME280;65758;45.458;11.062;2023-03-09T10:21:33;99764.11;;;18.10;48.54
76808;BME280;65758;45.458;11.062;2023-03-09T10:24:13;99763.09;;;18.14;48.05
76808;BME280;65758;45.458;11.062;2023-03-09T10:26:51;99763.52;;;18.16;48.02
76808;BME280;65758;45.458;11.062;2023-03-09T10:29:42;99764.14;;;18.18;47.85
76808;BME280;65758;45.458;11.062;2023-03-09T10:32:22;99757.20;;;18.22;47.94
76808;BME280;65758;45.458;11.062;2023-03-09T10:34:58;99764.16;;;18.28;47.87
76808;BME280;65758;45.458;11.062;2023-03-09T10:37:34;99762.45;;;18.31;47.52
76808;BME280;65758;45.458;11.062;2023-03-09T10:40:07;99767.31;;;18.35;47.48
76808;BME280;65758;45.458;11.062;2023-03-09T10:42:41;99773.14;;;18.38;47.37
76808;BME280;65758;45.458;11.062;2023-03-09T10:45:32;99771.16;;;18.40;47.06
76808;BME280;65758;45.458;11.062;2023-03-09T10:48:04;99778.71;;;18.43;47.30
76808;BME280;65758;45.458;11.062;2023-03-09T10:50:38;99778.20;;;18.47;47.24
76808;BME280;65758;45.458;11.062;2023-03-09T10:53:28;99777.48;;;18.50;46.90
76808;BME280;65758;45.458;11.062;2023-03-09T10:58:38;99785.98;;;18.57;46.94
76808;BME280;65758;45.458;11.062;2023-03-09T11:01:20;99780.16;;;18.60;46.98
76808;BME280;65758;45.458;11.062;2023-03-09T11:03:47;99784.46;;;18.62;47.16
76808;BME280;65758;45.458;11.062;2023-03-09T11:06:36;99778.86;;;18.65;47.36
76808;BME280;65758;45.458;11.062;2023-03-09T11:09:12;99778.21;;;18.74;47.38
76808;BME280;65758;45.458;11.062;2023-03-09T11:11:45;99780.98;;;18.78;46.97
76808;BME280;65758;45.458;11.062;2023-03-09T11:14:21;99782.09;;;18.79;47.01
76808;BME280;65758;45.458;11.062;2023-03-09T11:16:51;99787.42;;;18.79;46.52
76808;BME280;65758;45.458;11.062;2023-03-09T11:19:20;99783.94;;;18.78;46.81
76808;BME280;65758;45.458;11.062;2023-03-09T11:27:22;99783.88;;;18.85;46.79
76808;BME280;65758;45.458;11.062;2023-03-09T11:32:28;99777.89;;;18.88;46.93
76808;BME280;65758;45.458;11.062;2023-03-09T11:34:55;99776.77;;;18.97;46.80
76808;BME280;65758;45.458;11.062;2023-03-09T11:37:32;99775.42;;;19.04;46.39
76808;BME280;65758;45.458;11.062;2023-03-09T11:40:21;99774.40;;;19.12;46.34
76808;BME280;65758;45.458;11.062;2023-03-09T11:43:16;99773.61;;;19.18;46.30
76808;BME280;65758;45.458;11.062;2023-03-09T11:45:40;99773.23;;;19.18;45.98
76808;BME280;65758;45.458;11.062;2023-03-09T11:48:37;99774.39;;;19.18;46.25
76808;BME280;65758;45.458;11.062;2023-03-09T11:51:19;99771.84;;;19.18;46.04
76808;BME280;65758;45.458;11.062;2023-03-09T11:56:22;99770.14;;;19.22;46.06
76808;BME280;65758;45.458;11.062;2023-03-09T11:58:56;99762.69;;;19.31;45.74
76808;BME280;65758;45.458;11.062;2023-03-09T12:02:00;99763.83;;;19.38;45.47
76808;BME280;65758;45.458;11.062;2023-03-09T12:04:29;99762.84;;;19.41;45.45
76808;BME280;65758;45.458;11.062;2023-03-09T12:06:59;99763.22;;;19.50;45.81
76808;BME280;65758;45.458;11.062;2023-03-09T12:09:45;99768.55;;;19.66;45.84
76808;BME280;65758;45.458;11.062;2023-03-09T12:12:19;99757.16;;;19.76;45.34
76808;BME280;65758;45.458;11.062;2023-03-09T12:14:51;99758.09;;;19.77;45.32
76808;BME280;65758;45.458;11.062;2023-03-09T12:17:22;99756.07;;;19.75;45.33
76808;BME280;65758;45.458;11.062;2023-03-09T12:19:53;99758.95;;;19.78;45.81
76808;BME280;65758;45.458;11.062;2023-03-09T12:22:31;99751.43;;;19.84;46.09
76808;BME280;65758;45.458;11.062;2023-03-09T12:25:01;99752.22;;;19.89;45.48
76808;BME280;65758;45.458;11.062;2023-03-09T12:27:30;99745.77;;;19.92;45.07
76808;BME280;65758;45.458;11.062;2023-03-09T12:35:00;99741.10;;;20.03;45.00
76808;BME280;65758;45.458;11.062;2023-03-09T12:39:59;99736.23;;;20.15;44.67
76808;BME280;65758;45.458;11.062;2023-03-09T12:42:34;99725.89;;;20.19;45.23
76808;BME280;65758;45.458;11.062;2023-03-09T12:48:37;99729.62;;;20.19;45.01
76808;BME280;65758;45.458;11.062;2023-03-09T12:53:22;99727.30;;;20.30;45.08
76808;BME280;65758;45.458;11.062;2023-03-09T12:55:52;99728.02;;;20.37;43.65
76808;BME280;65758;45.458;11.062;2023-03-09T13:03:53;99721.60;;;20.13;43.54
76808;BME280;65758;45.458;11.062;2023-03-09T13:16:57;99730.40;;;19.81;43.63
76808;BME280;65758;45.458;11.062;2023-03-09T13:35:18;99721.73;;;19.82;43.76
76808;BME280;65758;45.458;11.062;2023-03-09T13:37:48;99713.41;;;19.83;43.71
76808;BME280;65758;45.458;11.062;2023-03-09T13:40:31;99713.15;;;19.87;43.98
76808;BME280;65758;45.458;11.062;2023-03-09T13:43:02;99713.91;;;19.92;43.88
76808;BME280;65758;45.458;11.062;2023-03-09T13:45:33;99706.45;;;19.98;43.87
76808;BME280;65758;45.458;11.062;2023-03-09T13:48:03;99706.92;;;20.04;43.57
76808;BME280;65758;45.458;11.062;2023-03-09T13:50:33;99707.98;;;20.08;43.48
76808;BME280;65758;45.458;11.062;2023-03-09T13:53:19;99716.92;;;20.09;43.61
76808;BME280;65758;45.458;11.062;2023-03-09T13:55:58;99714.27;;;20.08;43.90
76808;BME280;65758;45.458;11.062;2023-03-09T13:58:27;99713.55;;;20.10;44.21
76808;BME280;65758;45.458;11.062;2023-03-09T14:00:56;99707.59;;;20.11;43.65
76808;BME280;65758;45.458;11.062;2023-03-09T14:03:26;99707.29;;;20.12;43.71
76808;BME280;65758;45.458;11.062;2023-03-09T14:06:05;99709.23;;;20.15;43.83
76808;BME280;65758;45.458;11.062;2023-03-09T14:08:53;99710.91;;;20.16;43.78
76808;BME280;65758;45.458;11.062;2023-03-09T14:11:24;99710.91;;;20.18;43.14
76808;BME280;65758;45.458;11.062;2023-03-09T14:16:27;99708.15;;;20.11;42.64
76808;BME280;65758;45.458;11.062;2023-03-09T14:18:56;99708.48;;;20.08;42.47
76808;BME280;65758;45.458;11.062;2023-03-09T14:23:55;99712.34;;;20.03;42.13
76808;BME280;65758;45.458;11.062;2023-03-09T14:29:33;99709.55;;;19.98;42.05